Du har inga inställningar för hoppväder.nu

Hoppväder.nu

Senast uppdaterat 00:23

UTC-tid

2020-05-31 kl. 22:23


Sol och måne

Solen går upp 3:53 och går ner 23:03 (beräknade cirkatider)
Nästa fullmåne blir om 4 dagar (2020-06-05)

METAR

ESOE (Örebro)
(33 minuter sedan)
ESOE 312150Z AUTO 36005KT 9999 NCD 13/06 Q1030=



ESOK (Karlstad)
(33 minuter sedan)
ESOK 312150Z AUTO 04003KT 9999 NCD 10/06 Q1030=



ESGR (Skövde)
(33 minuter sedan)
ESGR 312150Z AUTO 00000KT 9999 NCD 08/06 Q1029=



ESSD (Borlänge)
(33 minuter sedan)
ESSD 312150Z AUTO 26006KT 9999 NCD 11/04 Q1030=



ESOW (Västerås)
(33 minuter sedan)
ESOW 312150Z AUTO 36003KT 9999 NCD 12/00 Q1029=



TAF

ESOE (Örebro)
ESOE



ESOK (Karlstad)
ESOK



ESGR (Skövde)
ESGR



ESSD (Borlänge)
ESSD



ESOW (Västerås)
ESOW





Kodnycklar till TAF och METAR






LHP

(Örebro är område se32g i Delområde 4)

Prognos är inte uppdaterad






Preliminär prognos